Time;durP1;ratioP1;P1;durP2;ratioP2;P2;SDS_P1;SDS_P2;PMS_P1;PMS_P2;Temp;Humidity;BMP_temperature;BMP_pressure;BME280_temperature;BME280_humidity;BME280_pressure;Samples;Min_cycle;Max_cycle;Signal;HPM_P1;HPM_P2
2023/11/16 00:02:27;;;;;;;19.80;10.38;;;;;;;;;;5044221;28;20053;-75
2023/11/16 00:04:59;;;;;;;48.10;11.15;;;;;;;;;;5044075;28;20045;-75
2023/11/16 00:07:32;;;;;;;24.45;9.77;;;;;;;;;;5044124;28;20570;-75
2023/11/16 00:10:04;;;;;;;17.55;9.52;;;;;;;;;;5044287;28;20049;-75
2023/11/16 00:12:35;;;;;;;19.60;11.20;;;;;;;;;;5044370;28;20419;-75
2023/11/16 00:15:06;;;;;;;20.83;8.75;;;;;;;;;;5042262;28;20055;-75
2023/11/16 00:17:42;;;;;;;16.00;8.45;;;;;;;;;;5043284;28;20061;-75
2023/11/16 00:20:13;;;;;;;15.48;8.70;;;;;;;;;;5043533;28;20060;-75
2023/11/16 00:22:43;;;;;;;16.40;7.18;;;;;;;;;;5043765;28;20048;-75
2023/11/16 00:25:16;;;;;;;14.35;6.75;;;;;;;;;;5044585;28;20049;-75
2023/11/16 00:27:47;;;;;;;19.80;7.03;;;;;;;;;;5042561;28;20053;-75
2023/11/16 00:30:18;;;;;;;17.02;7.30;;;;;;;;;;5043324;28;20061;-75
2023/11/16 00:32:51;;;;;;;13.23;6.32;;;;;;;;;;5043905;28;20531;-74
2023/11/16 00:35:21;;;;;;;14.82;6.75;;;;;;;;;;5043421;28;20511;-74
2023/11/16 00:37:52;;;;;;;11.70;6.75;;;;;;;;;;5025607;28;20167;-75
2023/11/16 00:40:23;;;;;;;21.50;6.95;;;;;;;;;;5043637;28;20381;-74
2023/11/16 00:42:53;;;;;;;9.88;5.60;;;;;;;;;;5042655;28;20064;-74
2023/11/16 00:45:23;;;;;;;14.68;5.78;;;;;;;;;;5043832;28;20052;-75
2023/11/16 00:47:54;;;;;;;18.77;6.07;;;;;;;;;;5044217;28;20041;-75
2023/11/16 00:50:24;;;;;;;24.02;6.22;;;;;;;;;;5038424;28;20052;-76
2023/11/16 00:52:55;;;;;;;42.67;7.10;;;;;;;;;;5024040;28;20049;-75
2023/11/16 00:55:31;;;;;;;14.63;7.18;;;;;;;;;;5023186;28;20045;-74
2023/11/16 00:58:03;;;;;;;14.32;6.35;;;;;;;;;;5020449;28;20049;-75
2023/11/16 01:00:35;;;;;;;17.25;6.38;;;;;;;;;;5022112;28;20528;-76
2023/11/16 01:03:06;;;;;;;14.80;6.32;;;;;;;;;;5023092;28;20424;-73
2023/11/16 01:05:36;;;;;;;20.90;5.97;;;;;;;;;;5022699;28;20057;-75
2023/11/16 01:08:09;;;;;;;9.82;5.50;;;;;;;;;;5023330;28;20052;-75
2023/11/16 01:10:43;;;;;;;11.60;6.63;;;;;;;;;;5021820;28;20062;-75
2023/11/16 01:13:20;;;;;;;9.23;5.78;;;;;;;;;;5023163;28;20056;-74
2023/11/16 01:15:52;;;;;;;11.35;5.47;;;;;;;;;;5022746;28;20057;-75
2023/11/16 01:18:26;;;;;;;12.40;6.38;;;;;;;;;;5021667;28;20060;-74
2023/11/16 01:20:58;;;;;;;10.25;6.47;;;;;;;;;;5023586;28;20048;-75
2023/11/16 01:23:29;;;;;;;15.02;5.72;;;;;;;;;;5021937;28;20064;-74
2023/11/16 01:25:59;;;;;;;12.70;5.70;;;;;;;;;;5021100;28;20050;-74
2023/11/16 01:28:32;;;;;;;10.13;5.38;;;;;;;;;;5022988;28;20091;-74
2023/11/16 01:31:03;;;;;;;12.68;5.28;;;;;;;;;;5023053;28;20064;-74
2023/11/16 01:33:34;;;;;;;11.00;5.18;;;;;;;;;;5023478;28;20049;-74
2023/11/16 01:36:05;;;;;;;21.48;6.18;;;;;;;;;;5021312;28;20420;-74
2023/11/16 01:38:37;;;;;;;9.27;5.25;;;;;;;;;;5022736;28;20488;-74
2023/11/16 01:41:09;;;;;;;14.95;4.88;;;;;;;;;;5005997;28;20049;-74
2023/11/16 01:43:41;;;;;;;13.32;4.85;;;;;;;;;;5022849;28;20049;-74
2023/11/16 01:46:12;;;;;;;8.40;4.05;;;;;;;;;;5022736;28;20056;-74
2023/11/16 01:48:48;;;;;;;6.85;4.07;;;;;;;;;;5022425;28;20052;-74
2023/11/16 01:51:22;;;;;;;6.45;3.88;;;;;;;;;;5023422;28;20045;-74
2023/11/16 01:54:00;;;;;;;6.45;4.05;;;;;;;;;;5021198;28;20546;-75
2023/11/16 01:56:34;;;;;;;15.10;4.95;;;;;;;;;;5022511;28;20060;-74
2023/11/16 01:59:08;;;;;;;14.48;4.47;;;;;;;;;;5021217;28;20049;-74
2023/11/16 02:01:40;;;;;;;10.40;4.70;;;;;;;;;;5021095;28;20060;-74
2023/11/16 02:04:10;;;;;;;9.35;4.72;;;;;;;;;;5021209;28;20048;-74
2023/11/16 02:06:40;;;;;;;10.98;4.28;;;;;;;;;;5021323;28;20050;-74
2023/11/16 02:09:11;;;;;;;15.18;4.95;;;;;;;;;;5022135;28;20045;-75
2023/11/16 02:11:43;;;;;;;9.27;4.32;;;;;;;;;;5021258;28;20488;-74
2023/11/16 02:14:14;;;;;;;15.90;4.95;;;;;;;;;;5020662;28;20065;-74
2023/11/16 02:16:45;;;;;;;44.72;5.07;;;;;;;;;;5021018;28;20076;-74
2023/11/16 02:19:30;;;;;;;17.38;4.78;;;;;;;;;;5022347;28;20060;-74
2023/11/16 02:22:03;;;;;;;17.30;4.65;;;;;;;;;;5021384;28;20706;-74
2023/11/16 02:24:33;;;;;;;25.80;5.05;;;;;;;;;;5021415;28;20049;-74
2023/11/16 02:27:04;;;;;;;15.18;5.93;;;;;;;;;;5022328;28;20525;-74
2023/11/16 02:29:35;;;;;;;8.98;4.38;;;;;;;;;;5022304;28;20060;-75
2023/11/16 02:32:06;;;;;;;9.68;4.57;;;;;;;;;;5021764;28;20084;-76
2023/11/16 02:34:37;;;;;;;9.70;4.35;;;;;;;;;;5022331;28;20050;-75
2023/11/16 02:37:07;;;;;;;10.68;5.05;;;;;;;;;;5021012;28;20416;-74
2023/11/16 02:39:38;;;;;;;7.55;4.03;;;;;;;;;;5021316;28;20056;-74
2023/11/16 02:42:10;;;;;;;8.07;3.90;;;;;;;;;;5022083;28;20049;-74
2023/11/16 02:44:41;;;;;;;10.23;4.05;;;;;;;;;;5020436;28;20049;-74
2023/11/16 02:47:12;;;;;;;12.25;4.18;;;;;;;;;;5021641;28;20050;-74
2023/11/16 02:49:42;;;;;;;13.10;3.60;;;;;;;;;;5022365;28;20539;-73
2023/11/16 02:52:13;;;;;;;12.93;5.60;;;;;;;;;;5021267;28;20491;-74
2023/11/16 02:54:43;;;;;;;12.50;5.85;;;;;;;;;;5022557;28;20412;-73
2023/11/16 02:57:14;;;;;;;10.77;4.53;;;;;;;;;;5021502;28;21095;-74
2023/11/16 02:59:45;;;;;;;7.93;3.80;;;;;;;;;;5020534;28;20052;-74
2023/11/16 03:02:18;;;;;;;8.02;4.45;;;;;;;;;;5020482;28;20041;-73
2023/11/16 03:04:48;;;;;;;10.95;3.90;;;;;;;;;;5021253;28;20054;-73
2023/11/16 03:07:18;;;;;;;6.53;4.00;;;;;;;;;;5021907;28;20056;-74
2023/11/16 03:10:01;;;;;;;7.88;4.05;;;;;;;;;;5020688;28;20053;-74
2023/11/16 03:12:32;;;;;;;7.07;3.65;;;;;;;;;;5020699;28;20054;-73
2023/11/16 03:15:06;;;;;;;7.95;3.88;;;;;;;;;;5021680;28;20054;-74
2023/11/16 03:17:40;;;;;;;10.55;3.78;;;;;;;;;;5022089;28;20053;-74
2023/11/16 03:20:12;;;;;;;6.90;4.47;;;;;;;;;;5021618;28;21096;-73
2023/11/16 03:22:43;;;;;;;9.80;3.55;;;;;;;;;;5023975;28;20527;-74
2023/11/16 03:25:14;;;;;;;8.32;3.75;;;;;;;;;;5025215;28;20121;-74
2023/11/16 03:27:44;;;;;;;8.45;3.45;;;;;;;;;;5025498;28;20055;-73
2023/11/16 03:30:16;;;;;;;6.22;3.15;;;;;;;;;;5024342;28;20046;-74
2023/11/16 03:32:47;;;;;;;10.52;4.22;;;;;;;;;;5025519;28;20579;-73
2023/11/16 03:35:17;;;;;;;9.00;3.22;;;;;;;;;;5024892;28;20522;-74
2023/11/16 03:37:48;;;;;;;8.50;4.18;;;;;;;;;;5023765;28;20420;-74
2023/11/16 03:40:18;;;;;;;9.32;3.97;;;;;;;;;;5024878;28;20061;-74
2023/11/16 03:42:48;;;;;;;5.95;3.70;;;;;;;;;;5025131;28;20048;-73
2023/11/16 03:45:19;;;;;;;7.95;3.90;;;;;;;;;;5024647;28;20419;-74
2023/11/16 03:47:50;;;;;;;13.50;4.35;;;;;;;;;;5024360;28;20663;-74
2023/11/16 03:50:20;;;;;;;5.82;3.92;;;;;;;;;;5023419;28;20435;-74
2023/11/16 03:52:51;;;;;;;6.63;3.65;;;;;;;;;;5024881;28;20049;-74
2023/11/16 03:55:21;;;;;;;11.18;4.03;;;;;;;;;;5023800;28;20520;-74
2023/11/16 03:57:51;;;;;;;6.53;3.60;;;;;;;;;;5024146;28;20041;-74
2023/11/16 04:00:22;;;;;;;9.50;3.65;;;;;;;;;;5023675;28;20058;-73
2023/11/16 04:02:58;;;;;;;9.55;3.85;;;;;;;;;;5024357;28;20076;-73
2023/11/16 04:05:28;;;;;;;6.78;3.17;;;;;;;;;;5023512;28;20062;-74
2023/11/16 04:07:59;;;;;;;7.55;3.00;;;;;;;;;;5024057;28;20068;-74
2023/11/16 04:10:29;;;;;;;4.90;3.30;;;;;;;;;;5023737;28;20599;-73
2023/11/16 04:12:59;;;;;;;7.03;3.38;;;;;;;;;;5024464;28;20053;-74
2023/11/16 04:15:30;;;;;;;12.90;4.10;;;;;;;;;;5023108;28;20049;-74
2023/11/16 04:18:03;;;;;;;7.60;4.38;;;;;;;;;;5024680;28;20049;-74
2023/11/16 04:20:35;;;;;;;10.65;5.90;;;;;;;;;;5024458;28;20048;-74
2023/11/16 04:23:06;;;;;;;14.18;5.10;;;;;;;;;;5024511;28;20050;-74
2023/11/16 04:25:36;;;;;;;8.90;4.22;;;;;;;;;;5024419;28;20064;-74
2023/11/16 04:28:07;;;;;;;8.30;4.97;;;;;;;;;;5023973;28;20397;-74
2023/11/16 04:30:37;;;;;;;5.55;3.90;;;;;;;;;;5024429;28;20045;-74
2023/11/16 04:33:08;;;;;;;8.25;4.20;;;;;;;;;;5022193;28;20060;-74
2023/11/16 04:35:38;;;;;;;10.38;5.32;;;;;;;;;;5023599;28;20045;-74
2023/11/16 04:38:09;;;;;;;11.18;5.05;;;;;;;;;;5024703;28;20501;-74
2023/11/16 04:40:40;;;;;;;9.57;4.90;;;;;;;;;;5024192;28;20691;-74
2023/11/16 04:43:10;;;;;;;7.22;5.47;;;;;;;;;;5024264;28;20633;-74
2023/11/16 04:45:42;;;;;;;8.95;5.50;;;;;;;;;;5023304;28;20533;-74
2023/11/16 04:48:13;;;;;;;10.75;6.00;;;;;;;;;;5023434;28;20053;-74
2023/11/16 04:50:44;;;;;;;11.32;5.70;;;;;;;;;;5022664;28;20523;-74
2023/11/16 04:53:14;;;;;;;11.50;5.05;;;;;;;;;;5023756;28;20061;-74
2023/11/16 04:55:45;;;;;;;9.85;6.13;;;;;;;;;;5023553;28;20041;-75
2023/11/16 04:58:17;;;;;;;8.00;5.50;;;;;;;;;;5023332;28;20061;-75
2023/11/16 05:00:49;;;;;;;9.52;5.63;;;;;;;;;;5023496;28;20496;-74
2023/11/16 05:03:21;;;;;;;8.18;5.05;;;;;;;;;;5023841;28;20057;-74
2023/11/16 05:05:52;;;;;;;11.50;5.15;;;;;;;;;;5023128;28;20761;-74
2023/11/16 05:08:25;;;;;;;8.02;4.82;;;;;;;;;;5022107;28;20045;-74
2023/11/16 05:10:57;;;;;;;11.95;4.38;;;;;;;;;;5023010;28;20045;-73
2023/11/16 05:13:28;;;;;;;7.63;4.47;;;;;;;;;;5023627;28;20045;-74
2023/11/16 05:15:58;;;;;;;8.00;4.93;;;;;;;;;;5023213;28;20045;-75
2023/11/16 05:18:29;;;;;;;8.82;4.10;;;;;;;;;;5023073;28;20053;-74
2023/11/16 05:21:01;;;;;;;9.38;4.60;;;;;;;;;;5023739;28;20096;-73
2023/11/16 05:23:32;;;;;;;7.50;4.50;;;;;;;;;;5023104;28;20121;-74
2023/11/16 05:26:01;;;;;;;12.95;4.80;;;;;;;;;;5023169;28;20523;-74
2023/11/16 05:28:32;;;;;;;9.52;4.65;;;;;;;;;;5023108;28;20542;-74
2023/11/16 05:31:06;;;;;;;12.57;5.55;;;;;;;;;;5022679;28;20056;-74
2023/11/16 05:33:38;;;;;;;12.95;6.10;;;;;;;;;;5023102;28;20045;-74
2023/11/16 05:36:08;;;;;;;10.40;6.45;;;;;;;;;;5022746;28;20551;-73
2023/11/16 05:38:39;;;;;;;18.00;7.38;;;;;;;;;;5022993;28;20057;-73
2023/11/16 05:41:10;;;;;;;9.27;7.40;;;;;;;;;;5023388;28;20440;-75
2023/11/16 05:43:40;;;;;;;8.93;6.68;;;;;;;;;;5023655;28;20053;-74
2023/11/16 05:46:11;;;;;;;8.73;5.05;;;;;;;;;;5022883;28;20068;-74
2023/11/16 05:48:42;;;;;;;8.85;6.95;;;;;;;;;;5022932;28;20045;-74
2023/11/16 05:51:13;;;;;;;10.00;5.20;;;;;;;;;;5022634;28;20053;-73
2023/11/16 05:53:43;;;;;;;9.35;5.03;;;;;;;;;;5022411;28;20053;-74
2023/11/16 05:56:13;;;;;;;8.10;5.40;;;;;;;;;;5022942;28;20056;-74
2023/11/16 05:58:44;;;;;;;11.80;5.85;;;;;;;;;;5021907;28;20044;-73
2023/11/16 06:01:14;;;;;;;10.82;5.13;;;;;;;;;;5022484;28;20511;-73
2023/11/16 06:03:46;;;;;;;7.85;5.45;;;;;;;;;;5022374;28;20044;-74
2023/11/16 06:06:17;;;;;;;8.02;5.70;;;;;;;;;;5021440;28;20037;-74
2023/11/16 06:08:49;;;;;;;14.82;5.28;;;;;;;;;;5022844;28;20109;-74
2023/11/16 06:11:19;;;;;;;9.90;5.80;;;;;;;;;;5022211;28;20049;-74
2023/11/16 06:13:50;;;;;;;10.07;6.18;;;;;;;;;;5022350;28;20050;-74
2023/11/16 06:16:21;;;;;;;13.18;6.20;;;;;;;;;;5021931;28;20064;-73
2023/11/16 06:18:59;;;;;;;8.57;5.30;;;;;;;;;;5022092;28;20060;-74
2023/11/16 06:21:29;;;;;;;9.38;5.80;;;;;;;;;;5022367;28;20049;-74
2023/11/16 06:24:00;;;;;;;12.23;6.20;;;;;;;;;;5022092;28;20053;-74
2023/11/16 06:26:31;;;;;;;11.70;5.70;;;;;;;;;;5022005;28;20049;-74
2023/11/16 06:29:01;;;;;;;9.95;5.57;;;;;;;;;;5022169;28;20046;-74
2023/11/16 06:31:31;;;;;;;11.77;5.78;;;;;;;;;;5021215;28;20057;-74
2023/11/16 06:34:03;;;;;;;8.15;5.57;;;;;;;;;;5022523;28;20053;-74
2023/11/16 06:36:34;;;;;;;14.00;5.88;;;;;;;;;;5021932;28;20060;-74
2023/11/16 06:39:04;;;;;;;10.48;5.65;;;;;;;;;;5022719;28;20045;-74
2023/11/16 06:41:35;;;;;;;8.88;5.70;;;;;;;;;;5021721;28;20046;-74
2023/11/16 06:44:06;;;;;;;14.77;6.63;;;;;;;;;;5022246;28;20042;-74
2023/11/16 06:46:39;;;;;;;14.45;7.65;;;;;;;;;;5022346;28;20587;-74
2023/11/16 06:49:10;;;;;;;17.33;9.68;;;;;;;;;;5022176;28;20041;-74
2023/11/16 06:51:41;;;;;;;24.73;11.70;;;;;;;;;;5022398;28;20053;-74
2023/11/16 06:54:18;;;;;;;21.70;11.57;;;;;;;;;;5022625;28;20068;-74
2023/11/16 06:56:50;;;;;;;26.65;10.93;;;;;;;;;;5023431;28;20053;-75
2023/11/16 06:59:24;;;;;;;27.65;12.18;;;;;;;;;;5025294;28;20033;-74
2023/11/16 07:01:56;;;;;;;22.52;11.88;;;;;;;;;;5025530;28;20045;-74
2023/11/16 07:04:27;;;;;;;27.60;12.10;;;;;;;;;;5025553;28;20505;-73
2023/11/16 07:06:58;;;;;;;22.10;12.60;;;;;;;;;;5024340;28;20064;-74
2023/11/16 07:09:29;;;;;;;29.48;13.02;;;;;;;;;;5026008;28;20046;-73
2023/11/16 07:11:59;;;;;;;26.48;14.00;;;;;;;;;;5025271;28;20488;-75
2023/11/16 07:14:30;;;;;;;24.08;13.18;;;;;;;;;;5025031;28;20061;-73
2023/11/16 07:17:16;;;;;;;29.67;13.13;;;;;;;;;;5025701;28;20056;-76
2023/11/16 07:19:47;;;;;;;29.17;13.48;;;;;;;;;;5025417;28;20045;-74
2023/11/16 07:22:18;;;;;;;31.08;12.95;;;;;;;;;;5025198;28;20509;-75
2023/11/16 07:24:50;;;;;;;24.90;12.55;;;;;;;;;;5025218;28;20052;-74
2023/11/16 07:27:25;;;;;;;20.08;10.07;;;;;;;;;;5025209;28;20053;-74
2023/11/16 07:29:55;;;;;;;26.55;10.65;;;;;;;;;;5025265;28;20053;-74
2023/11/16 07:32:25;;;;;;;17.15;9.80;;;;;;;;;;5025477;28;20049;-74
2023/11/16 07:34:59;;;;;;;19.92;11.02;;;;;;;;;;5025300;28;20057;-74
2023/11/16 07:37:30;;;;;;;15.57;10.05;;;;;;;;;;5025176;28;20057;-74
2023/11/16 07:40:01;;;;;;;20.98;11.45;;;;;;;;;;5024998;28;20041;-74
2023/11/16 07:42:33;;;;;;;22.55;11.65;;;;;;;;;;5025649;28;20061;-74
2023/11/16 07:45:03;;;;;;;22.02;11.80;;;;;;;;;;5024891;28;20052;-74
2023/11/16 07:47:34;;;;;;;26.80;12.07;;;;;;;;;;5024014;28;20049;-74
2023/11/16 07:50:12;;;;;;;24.23;13.35;;;;;;;;;;5024671;28;20060;-74
2023/11/16 07:52:43;;;;;;;27.45;12.75;;;;;;;;;;5024898;28;20056;-74
2023/11/16 07:55:21;;;;;;;27.52;14.00;;;;;;;;;;5024327;28;20416;-74
2023/11/16 07:57:56;;;;;;;30.58;12.65;;;;;;;;;;5025268;28;20060;-74
2023/11/16 08:00:30;;;;;;;18.77;11.35;;;;;;;;;;5024666;28;20045;-74
2023/11/16 08:05:53;;;;;;;18.02;10.93;;;;;;;;;;5024497;28;20057;-74
2023/11/16 08:08:24;;;;;;;23.10;12.18;;;;;;;;;;5024120;28;20053;-75
2023/11/16 08:10:55;;;;;;;24.42;11.80;;;;;;;;;;5024466;28;20053;-75
2023/11/16 08:13:25;;;;;;;21.77;12.38;;;;;;;;;;5024464;28;20044;-74
2023/11/16 08:15:59;;;;;;;16.92;10.95;;;;;;;;;;5024889;28;20045;-74
2023/11/16 08:18:30;;;;;;;19.85;10.73;;;;;;;;;;5024013;28;20045;-75
2023/11/16 08:21:01;;;;;;;17.90;10.07;;;;;;;;;;5024287;28;20514;-75
2023/11/16 08:23:30;;;;;;;22.83;10.93;;;;;;;;;;5023637;28;20050;-75
2023/11/16 08:26:20;;;;;;;16.98;9.55;;;;;;;;;;5023827;28;20037;-75
2023/11/16 08:28:51;;;;;;;17.40;10.00;;;;;;;;;;5024187;28;20523;-74
2023/11/16 08:31:23;;;;;;;21.92;10.15;;;;;;;;;;5024408;28;20045;-75
2023/11/16 08:33:54;;;;;;;19.48;10.20;;;;;;;;;;5024481;28;20049;-75
2023/11/16 08:36:25;;;;;;;19.40;10.68;;;;;;;;;;5024295;28;20064;-75
2023/11/16 08:38:57;;;;;;;19.67;10.98;;;;;;;;;;5024100;28;20618;-75
2023/11/16 08:41:28;;;;;;;16.83;8.75;;;;;;;;;;5023843;28;20042;-75
2023/11/16 08:44:01;;;;;;;15.05;10.02;;;;;;;;;;5023614;28;20076;-75
2023/11/16 08:46:32;;;;;;;17.10;9.85;;;;;;;;;;5023666;28;20591;-75
2023/11/16 08:49:02;;;;;;;23.02;9.93;;;;;;;;;;5024369;28;20184;-75
2023/11/16 08:51:33;;;;;;;19.10;10.38;;;;;;;;;;5025268;28;20042;-75
2023/11/16 08:54:07;;;;;;;15.02;9.63;;;;;;;;;;5024183;28;20053;-75
2023/11/16 08:56:38;;;;;;;21.50;10.05;;;;;;;;;;5023803;28;20045;-76
2023/11/16 08:59:13;;;;;;;22.25;10.55;;;;;;;;;;5023446;28;20059;-73
2023/11/16 09:01:44;;;;;;;23.33;9.65;;;;;;;;;;5023410;28;20045;-75
2023/11/16 09:04:15;;;;;;;21.15;9.65;;;;;;;;;;5023556;28;20057;-76
2023/11/16 09:06:45;;;;;;;23.55;10.50;;;;;;;;;;5023291;28;20057;-82
2023/11/16 09:12:12;;;;;;;20.83;10.57;;;;;;;;;;5022975;28;20539;-76
2023/11/16 09:14:43;;;;;;;;;;;;;;;;;;5024346;28;20045;-76
2023/11/16 09:17:20;;;;;;;23.45;11.40;;;;;;;;;;5023464;28;20311;-75
2023/11/16 09:19:52;;;;;;;23.42;10.18;;;;;;;;;;5021464;28;20049;-76
2023/11/16 09:22:23;;;;;;;17.05;9.80;;;;;;;;;;5022925;28;20054;-75
2023/11/16 09:24:57;;;;;;;26.85;9.48;;;;;;;;;;5023498;28;20059;-76
2023/11/16 09:27:27;;;;;;;22.02;9.55;;;;;;;;;;5022977;28;20052;-76
2023/11/16 09:29:58;;;;;;;17.38;10.10;;;;;;;;;;5021787;28;20049;-76
2023/11/16 09:32:30;;;;;;;24.35;10.77;;;;;;;;;;5023184;28;20053;-76
2023/11/16 09:35:00;;;;;;;18.70;10.88;;;;;;;;;;5023081;28;20057;-75
2023/11/16 09:37:46;;;;;;;24.13;10.70;;;;;;;;;;5022680;28;20630;-85
2023/11/16 09:40:21;;;;;;;21.70;10.75;;;;;;;;;;5005926;28;20523;-76
2023/11/16 09:42:56;;;;;;;19.70;10.18;;;;;;;;;;5023117;28;20045;-76
2023/11/16 09:45:31;;;;;;;18.20;10.45;;;;;;;;;;5023244;28;20049;-77
2023/11/16 09:48:12;;;;;;;25.75;11.77;;;;;;;;;;5022437;28;20144;-76
2023/11/16 09:50:45;;;;;;;16.77;10.80;;;;;;;;;;5022263;28;20061;-76
2023/11/16 09:53:17;;;;;;;22.67;12.07;;;;;;;;;;5022416;28;20049;-76
2023/11/16 09:55:50;;;;;;;20.92;11.18;;;;;;;;;;5022396;28;20055;-76
2023/11/16 09:58:28;;;;;;;18.17;10.10;;;;;;;;;;5022638;28;20041;-75
2023/11/16 10:00:59;;;;;;;20.13;10.30;;;;;;;;;;5022477;28;20068;-76
2023/11/16 10:03:31;;;;;;;17.63;10.15;;;;;;;;;;5022517;28;20045;-76
2023/11/16 10:06:04;;;;;;;19.90;11.18;;;;;;;;;;5021974;28;20632;-76
2023/11/16 10:08:40;;;;;;;17.40;9.55;;;;;;;;;;5022143;28;20049;-75
2023/11/16 10:11:12;;;;;;;14.20;7.57;;;;;;;;;;5022027;28;20522;-76
2023/11/16 10:13:56;;;;;;;15.80;8.68;;;;;;;;;;5022529;28;20511;-75
2023/11/16 10:16:28;;;;;;;9.15;6.22;;;;;;;;;;5022568;28;20041;-76
2023/11/16 10:19:00;;;;;;;11.88;6.95;;;;;;;;;;5022233;28;20056;-74
2023/11/16 10:21:31;;;;;;;10.13;6.40;;;;;;;;;;5020359;28;20060;-76
2023/11/16 10:24:10;;;;;;;10.20;5.68;;;;;;;;;;5021049;28;20045;-76
2023/11/16 10:26:52;;;;;;;7.63;5.50;;;;;;;;;;5022526;28;20415;-82
2023/11/16 10:29:24;;;;;;;8.55;5.22;;;;;;;;;;5024846;28;20058;-77
2023/11/16 10:31:56;;;;;;;9.38;5.78;;;;;;;;;;5022869;28;20057;-83
2023/11/16 10:34:28;;;;;;;13.52;8.05;;;;;;;;;;5026463;28;20545;-75
2023/11/16 10:37:01;;;;;;;8.57;5.50;;;;;;;;;;5025750;28;20054;-76
2023/11/16 10:39:33;;;;;;;11.70;6.28;;;;;;;;;;5024875;28;20393;-81
2023/11/16 10:42:04;;;;;;;10.40;5.68;;;;;;;;;;5025432;28;20053;-76
2023/11/16 10:44:36;;;;;;;8.23;5.10;;;;;;;;;;5026181;28;20546;-76
2023/11/16 10:47:08;;;;;;;6.72;4.80;;;;;;;;;;5026449;28;20507;-78
2023/11/16 10:49:40;;;;;;;6.63;4.65;;;;;;;;;;5026332;28;20049;-76
2023/11/16 10:52:16;;;;;;;6.50;4.30;;;;;;;;;;5026625;28;20056;-74
2023/11/16 10:54:49;;;;;;;6.90;4.45;;;;;;;;;;5026121;28;20061;-76
2023/11/16 10:57:19;;;;;;;5.90;3.60;;;;;;;;;;5026731;28;20539;-78
2023/11/16 10:59:51;;;;;;;4.57;3.50;;;;;;;;;;5027555;28;20057;-76
2023/11/16 11:02:23;;;;;;;7.45;4.20;;;;;;;;;;5025875;28;20401;-77
2023/11/16 11:04:54;;;;;;;6.75;4.05;;;;;;;;;;5009079;28;20540;-76
2023/11/16 11:07:24;;;;;;;5.18;3.78;;;;;;;;;;5025463;28;20064;-75
2023/11/16 11:09:57;;;;;;;5.85;3.70;;;;;;;;;;5025310;28;20107;-75
2023/11/16 11:12:28;;;;;;;5.25;3.15;;;;;;;;;;5025707;28;20049;-75
2023/11/16 11:14:58;;;;;;;5.78;3.13;;;;;;;;;;5024959;28;20056;-75
2023/11/16 11:17:32;;;;;;;4.85;3.38;;;;;;;;;;5025618;28;20061;-78
2023/11/16 11:20:09;;;;;;;4.05;3.22;;;;;;;;;;5025397;28;20072;-75
2023/11/16 11:22:42;;;;;;;5.60;3.92;;;;;;;;;;5025651;28;20412;-75
2023/11/16 11:25:23;;;;;;;11.25;3.13;;;;;;;;;;5025135;28;20049;-75
2023/11/16 11:27:53;;;;;;;4.68;3.33;;;;;;;;;;5025209;28;20049;-75
2023/11/16 11:30:23;;;;;;;4.72;3.42;;;;;;;;;;5024835;28;20522;-76
2023/11/16 11:32:59;;;;;;;8.02;3.97;;;;;;;;;;5023888;28;20060;-77
2023/11/16 11:35:37;;;;;;;7.13;3.55;;;;;;;;;;5025463;28;20060;-76
2023/11/16 11:38:18;;;;;;;13.45;4.68;;;;;;;;;;5025033;28;20049;-77
2023/11/16 11:41:18;;;;;;;5.05;3.75;;;;;;;;;;5025015;28;20041;-77
2023/11/16 11:43:49;;;;;;;7.22;3.55;;;;;;;;;;5023843;28;20405;-75
2023/11/16 11:46:20;;;;;;;6.95;3.95;;;;;;;;;;5023799;28;20508;-76
2023/11/16 11:48:51;;;;;;;8.52;3.90;;;;;;;;;;5024932;28;20057;-74
2023/11/16 11:51:26;;;;;;;6.03;3.83;;;;;;;;;;5024874;28;20049;-75
2023/11/16 11:53:58;;;;;;;11.55;4.10;;;;;;;;;;5025488;28;20052;-75
2023/11/16 11:56:33;;;;;;;4.93;3.60;;;;;;;;;;5024402;28;20077;-74
2023/11/16 11:59:04;;;;;;;5.53;3.35;;;;;;;;;;5025987;28;20057;-75
2023/11/16 12:01:35;;;;;;;5.57;3.85;;;;;;;;;;5024568;28;20050;-74
2023/11/16 12:04:08;;;;;;;5.20;3.78;;;;;;;;;;5024525;28;20120;-75
2023/11/16 12:06:49;;;;;;;8.75;3.60;;;;;;;;;;5024450;28;20124;-77
2023/11/16 12:09:23;;;;;;;6.78;3.50;;;;;;;;;;5024356;28;20038;-76
2023/11/16 12:11:54;;;;;;;5.53;3.53;;;;;;;;;;5024954;28;20056;-77
2023/11/16 12:14:25;;;;;;;7.57;3.88;;;;;;;;;;5023209;28;20058;-76
2023/11/16 12:17:08;;;;;;;6.25;4.00;;;;;;;;;;5023859;28;20056;-77
2023/11/16 12:19:42;;;;;;;7.90;3.33;;;;;;;;;;5024490;28;20041;-77
2023/11/16 12:22:17;;;;;;;6.38;3.83;;;;;;;;;;5007292;28;20080;-74
2023/11/16 12:24:48;;;;;;;6.72;3.92;;;;;;;;;;5025061;28;20049;-75
2023/11/16 12:27:19;;;;;;;6.60;3.75;;;;;;;;;;5024541;28;20068;-75
2023/11/16 12:29:58;;;;;;;5.40;3.92;;;;;;;;;;5024738;28;20060;-77
2023/11/16 12:32:30;;;;;;;7.72;3.70;;;;;;;;;;5023066;28;20530;-74
2023/11/16 12:35:01;;;;;;;8.35;3.70;;;;;;;;;;5024363;28;20050;-75
2023/11/16 12:37:37;;;;;;;7.50;4.10;;;;;;;;;;5029191;28;20072;-81
2023/11/16 12:40:16;;;;;;;6.80;3.60;;;;;;;;;;5023989;28;20053;-78
2023/11/16 12:42:50;;;;;;;7.57;3.75;;;;;;;;;;5022459;28;20053;-77
2023/11/16 12:45:21;;;;;;;10.70;3.80;;;;;;;;;;5023743;28;20045;-77
2023/11/16 12:47:54;;;;;;;7.38;3.05;;;;;;;;;;5023674;28;20060;-78
2023/11/16 12:50:27;;;;;;;6.03;3.42;;;;;;;;;;5023784;28;20049;-78
2023/11/16 12:52:58;;;;;;;4.50;3.47;;;;;;;;;;5023991;28;20049;-78
2023/11/16 12:55:28;;;;;;;3.97;3.20;;;;;;;;;;5023537;28;20041;-83
2023/11/16 12:57:59;;;;;;;6.47;3.50;;;;;;;;;;5023654;28;20045;-79
2023/11/16 13:00:29;;;;;;;5.43;2.85;;;;;;;;;;5023719;28;20335;-78
2023/11/16 13:03:00;;;;;;;3.75;2.60;;;;;;;;;;5023977;28;20045;-77
2023/11/16 13:05:31;;;;;;;5.20;2.90;;;;;;;;;;5023379;28;20052;-78
2023/11/16 13:08:13;;;;;;;4.93;3.15;;;;;;;;;;5023245;28;20057;-78
2023/11/16 13:10:43;;;;;;;5.85;2.80;;;;;;;;;;5024118;28;20060;-78
2023/11/16 13:13:14;;;;;;;5.07;3.00;;;;;;;;;;5022075;28;20065;-78
2023/11/16 13:15:46;;;;;;;4.32;2.90;;;;;;;;;;5023519;28;20072;-78
2023/11/16 13:18:18;;;;;;;4.50;2.88;;;;;;;;;;5021829;28;20049;-77
2023/11/16 13:20:48;;;;;;;9.68;3.45;;;;;;;;;;5022775;28;20049;-84
2023/11/16 13:23:18;;;;;;;4.22;3.05;;;;;;;;;;5023500;28;20356;-78
2023/11/16 13:25:50;;;;;;;5.43;3.10;;;;;;;;;;5023292;28;20041;-80
2023/11/16 13:28:22;;;;;;;5.13;3.30;;;;;;;;;;5022513;28;20053;-78
2023/11/16 13:30:53;;;;;;;7.00;3.28;;;;;;;;;;5023201;28;20050;-76
2023/11/16 13:33:23;;;;;;;4.53;3.00;;;;;;;;;;5023045;28;20061;-80
2023/11/16 13:35:54;;;;;;;4.75;3.20;;;;;;;;;;5022423;28;20504;-76
2023/11/16 13:38:27;;;;;;;4.00;3.20;;;;;;;;;;5022672;28;20053;-75
2023/11/16 13:41:00;;;;;;;4.95;3.03;;;;;;;;;;5023290;28;20049;-77
2023/11/16 13:43:30;;;;;;;5.93;3.78;;;;;;;;;;5023031;28;20495;-76
2023/11/16 13:46:02;;;;;;;5.95;4.28;;;;;;;;;;5023058;28;20416;-77
2023/11/16 13:48:34;;;;;;;5.07;3.78;;;;;;;;;;5023297;28;20755;-76
2023/11/16 13:51:05;;;;;;;4.80;3.33;;;;;;;;;;5022341;28;20057;-75
2023/11/16 13:53:35;;;;;;;5.43;3.30;;;;;;;;;;5022543;28;20045;-78
2023/11/16 13:56:06;;;;;;;8.77;3.47;;;;;;;;;;5022120;28;20686;-76
2023/11/16 13:58:36;;;;;;;8.88;3.80;;;;;;;;;;5022389;28;20041;-76
2023/11/16 14:01:08;;;;;;;4.97;3.42;;;;;;;;;;5023058;28;20064;-78
2023/11/16 14:03:42;;;;;;;12.60;3.83;;;;;;;;;;5023552;28;20049;-80
2023/11/16 14:06:14;;;;;;;8.20;4.00;;;;;;;;;;5022651;28;20065;-77
2023/11/16 14:08:44;;;;;;;5.82;3.40;;;;;;;;;;5022546;28;20045;-76
2023/11/16 14:11:14;;;;;;;4.65;3.10;;;;;;;;;;5022336;28;20053;-78
2023/11/16 14:13:44;;;;;;;5.95;3.90;;;;;;;;;;5022097;28;20046;-76
2023/11/16 14:16:15;;;;;;;9.05;4.55;;;;;;;;;;5021818;28;20060;-79
2023/11/16 14:18:46;;;;;;;8.13;4.07;;;;;;;;;;5021737;28;20049;-75
2023/11/16 14:21:18;;;;;;;5.97;3.72;;;;;;;;;;5020968;28;20048;-78
2023/11/16 14:23:51;;;;;;;4.00;3.17;;;;;;;;;;5021857;28;20064;-78
2023/11/16 14:26:23;;;;;;;4.80;3.20;;;;;;;;;;5021214;28;20055;-79
2023/11/16 14:28:55;;;;;;;4.57;3.50;;;;;;;;;;5022740;28;20602;-78
2023/11/16 14:31:27;;;;;;;5.85;3.80;;;;;;;;;;5021454;28;20061;-76
2023/11/16 14:33:58;;;;;;;6.57;4.28;;;;;;;;;;5022278;28;20080;-73
2023/11/16 14:36:28;;;;;;;6.40;3.28;;;;;;;;;;5021426;28;20076;-75
2023/11/16 14:38:59;;;;;;;6.13;3.50;;;;;;;;;;5022654;28;20068;-77
2023/11/16 14:41:30;;;;;;;3.92;3.13;;;;;;;;;;5022360;28;20045;-76
2023/11/16 14:44:01;;;;;;;7.28;3.90;;;;;;;;;;5020860;28;20424;-76
2023/11/16 14:46:32;;;;;;;5.72;3.70;;;;;;;;;;5022046;28;20860;-76
2023/11/16 14:49:02;;;;;;;12.95;4.80;;;;;;;;;;5021565;28;21087;-74
2023/11/16 14:51:33;;;;;;;7.28;4.50;;;;;;;;;;5022067;28;20774;-75
2023/11/16 14:54:04;;;;;;;5.95;3.83;;;;;;;;;;5024192;28;20045;-77
2023/11/16 14:56:35;;;;;;;5.32;4.18;;;;;;;;;;5021905;28;20404;-78
2023/11/16 14:59:08;;;;;;;5.45;3.58;;;;;;;;;;5021345;28;20045;-76
2023/11/16 15:01:50;;;;;;;4.72;3.28;;;;;;;;;;5019991;28;20054;-75
2023/11/16 15:04:21;;;;;;;7.03;3.83;;;;;;;;;;5020362;28;20060;-79
2023/11/16 15:06:52;;;;;;;7.60;3.83;;;;;;;;;;5021536;28;20119;-83
2023/11/16 15:09:23;;;;;;;6.22;3.30;;;;;;;;;;5021970;28;20056;-75